sensor_id;sensor_type;location;lat;lon;timestamp;temperature;humidity
3528;DHT22;1778;47.966;7.854;2022-07-11T00:00:14;16.40;99.90
3528;DHT22;1778;47.966;7.854;2022-07-11T00:01:16;16.40;99.90
3528;DHT22;1778;47.966;7.854;2022-07-11T00:02:17;16.40;99.90
3528;DHT22;1778;47.966;7.854;2022-07-11T00:03:20;16.30;99.90
3528;DHT22;1778;47.966;7.854;2022-07-11T00:04:22;16.30;99.90
3528;DHT22;1778;47.966;7.854;2022-07-11T00:05:24;16.30;99.90
3528;DHT22;1778;47.966;7.854;2022-07-11T00:06:25;16.30;99.90
3528;DHT22;1778;47.966;7.854;2022-07-11T00:07:27;16.40;99.90
3528;DHT22;1778;47.966;7.854;2022-07-11T00:08:29;16.30;99.90
3528;DHT22;1778;47.966;7.854;2022-07-11T00:09:31;16.30;99.90
3528;DHT22;1778;47.966;7.854;2022-07-11T00:10:33;16.20;99.90
3528;DHT22;1778;47.966;7.854;2022-07-11T00:11:35;16.20;99.90
3528;DHT22;1778;47.966;7.854;2022-07-11T00:12:36;16.20;99.90
3528;DHT22;1778;47.966;7.854;2022-07-11T00:13:38;16.30;99.90
3528;DHT22;1778;47.966;7.854;2022-07-11T00:14:40;16.20;99.90
3528;DHT22;1778;47.966;7.854;2022-07-11T00:15:42;16.20;99.90
3528;DHT22;1778;47.966;7.854;2022-07-11T00:16:44;16.20;99.90
3528;DHT22;1778;47.966;7.854;2022-07-11T00:17:46;16.10;99.90
3528;DHT22;1778;47.966;7.854;2022-07-11T00:18:48;16.20;99.90
3528;DHT22;1778;47.966;7.854;2022-07-11T00:19:50;16.20;99.90
3528;DHT22;1778;47.966;7.854;2022-07-11T00:20:51;16.10;99.90
3528;DHT22;1778;47.966;7.854;2022-07-11T00:21:53;16.10;99.90
3528;DHT22;1778;47.966;7.854;2022-07-11T00:22:54;16.10;99.90
3528;DHT22;1778;47.966;7.854;2022-07-11T00:23:56;16.00;99.90
3528;DHT22;1778;47.966;7.854;2022-07-11T00:24:58;16.00;99.90
3528;DHT22;1778;47.966;7.854;2022-07-11T00:26:00;16.00;99.90
3528;DHT22;1778;47.966;7.854;2022-07-11T00:27:02;16.00;99.90
3528;DHT22;1778;47.966;7.854;2022-07-11T00:28:03;16.00;99.90
3528;DHT22;1778;47.966;7.854;2022-07-11T00:29:05;15.90;99.90
3528;DHT22;1778;47.966;7.854;2022-07-11T00:30:08;16.00;99.90
3528;DHT22;1778;47.966;7.854;2022-07-11T00:31:10;16.00;99.90
3528;DHT22;1778;47.966;7.854;2022-07-11T00:32:11;15.90;99.90
3528;DHT22;1778;47.966;7.854;2022-07-11T00:33:13;15.90;99.90
3528;DHT22;1778;47.966;7.854;2022-07-11T00:34:15;15.90;99.90
3528;DHT22;1778;47.966;7.854;2022-07-11T00:35:18;16.00;99.90
3528;DHT22;1778;47.966;7.854;2022-07-11T00:36:20;15.90;99.90
3528;DHT22;1778;47.966;7.854;2022-07-11T00:37:22;15.90;99.90
3528;DHT22;1778;47.966;7.854;2022-07-11T00:38:23;15.90;99.90
3528;DHT22;1778;47.966;7.854;2022-07-11T00:39:25;16.00;99.90
3528;DHT22;1778;47.966;7.854;2022-07-11T00:40:26;16.00;99.90
3528;DHT22;1778;47.966;7.854;2022-07-11T00:41:28;15.90;99.90
3528;DHT22;1778;47.966;7.854;2022-07-11T00:42:30;15.90;99.90
3528;DHT22;1778;47.966;7.854;2022-07-11T00:43:36;15.90;99.90
3528;DHT22;1778;47.966;7.854;2022-07-11T00:44:39;15.90;99.90
3528;DHT22;1778;47.966;7.854;2022-07-11T00:45:40;15.90;99.90
3528;DHT22;1778;47.966;7.854;2022-07-11T00:46:42;15.90;99.90
3528;DHT22;1778;47.966;7.854;2022-07-11T00:47:44;15.90;99.90
3528;DHT22;1778;47.966;7.854;2022-07-11T00:48:46;15.90;99.90
3528;DHT22;1778;47.966;7.854;2022-07-11T00:49:47;15.90;99.90
3528;DHT22;1778;47.966;7.854;2022-07-11T00:50:49;15.90;99.90
3528;DHT22;1778;47.966;7.854;2022-07-11T00:51:51;15.80;99.90
3528;DHT22;1778;47.966;7.854;2022-07-11T00:52:55;15.90;99.90
3528;DHT22;1778;47.966;7.854;2022-07-11T00:53:58;15.90;99.90
3528;DHT22;1778;47.966;7.854;2022-07-11T00:55:02;15.90;99.90
3528;DHT22;1778;47.966;7.854;2022-07-11T00:56:05;15.90;99.90
3528;DHT22;1778;47.966;7.854;2022-07-11T00:57:07;15.90;99.90
3528;DHT22;1778;47.966;7.854;2022-07-11T00:58:08;15.90;99.90
3528;DHT22;1778;47.966;7.854;2022-07-11T00:59:10;16.00;99.90
3528;DHT22;1778;47.966;7.854;2022-07-11T01:00:12;16.00;99.90
3528;DHT22;1778;47.966;7.854;2022-07-11T01:01:14;16.00;99.90
3528;DHT22;1778;47.966;7.854;2022-07-11T01:02:16;15.90;99.90
3528;DHT22;1778;47.966;7.854;2022-07-11T01:03:17;16.00;99.90
3528;DHT22;1778;47.966;7.854;2022-07-11T01:04:19;16.00;99.90
3528;DHT22;1778;47.966;7.854;2022-07-11T01:05:21;15.90;99.90
3528;DHT22;1778;47.966;7.854;2022-07-11T01:06:23;16.00;99.90
3528;DHT22;1778;47.966;7.854;2022-07-11T01:07:25;16.00;99.90
3528;DHT22;1778;47.966;7.854;2022-07-11T01:08:27;16.00;99.90
3528;DHT22;1778;47.966;7.854;2022-07-11T01:09:32;16.00;99.90
3528;DHT22;1778;47.966;7.854;2022-07-11T01:10:34;16.00;99.90
3528;DHT22;1778;47.966;7.854;2022-07-11T01:11:36;16.10;99.90
3528;DHT22;1778;47.966;7.854;2022-07-11T01:12:38;16.10;99.90
3528;DHT22;1778;47.966;7.854;2022-07-11T01:13:40;16.00;99.90
3528;DHT22;1778;47.966;7.854;2022-07-11T01:14:55;16.00;99.90
3528;DHT22;1778;47.966;7.854;2022-07-11T01:16:11;16.00;99.90
3528;DHT22;1778;47.966;7.854;2022-07-11T01:17:16;16.00;99.90
3528;DHT22;1778;47.966;7.854;2022-07-11T01:18:18;16.00;99.90
3528;DHT22;1778;47.966;7.854;2022-07-11T01:19:20;15.90;99.90
3528;DHT22;1778;47.966;7.854;2022-07-11T01:20:22;16.00;99.90
3528;DHT22;1778;47.966;7.854;2022-07-11T01:21:36;16.00;99.90
3528;DHT22;1778;47.966;7.854;2022-07-11T01:22:47;15.90;99.90
3528;DHT22;1778;47.966;7.854;2022-07-11T01:23:54;15.90;99.90
3528;DHT22;1778;47.966;7.854;2022-07-11T01:24:56;15.90;99.90
3528;DHT22;1778;47.966;7.854;2022-07-11T01:25:58;15.90;99.90
3528;DHT22;1778;47.966;7.854;2022-07-11T01:27:01;15.90;99.90
3528;DHT22;1778;47.966;7.854;2022-07-11T01:28:05;15.90;99.90
3528;DHT22;1778;47.966;7.854;2022-07-11T01:29:11;15.80;99.90
3528;DHT22;1778;47.966;7.854;2022-07-11T01:30:13;15.80;99.90
3528;DHT22;1778;47.966;7.854;2022-07-11T01:31:15;15.80;99.90
3528;DHT22;1778;47.966;7.854;2022-07-11T01:32:19;15.80;99.90
3528;DHT22;1778;47.966;7.854;2022-07-11T01:33:22;15.80;99.90
3528;DHT22;1778;47.966;7.854;2022-07-11T01:34:24;15.80;99.90
3528;DHT22;1778;47.966;7.854;2022-07-11T01:35:26;15.80;99.90
3528;DHT22;1778;47.966;7.854;2022-07-11T01:36:28;15.80;99.90
3528;DHT22;1778;47.966;7.854;2022-07-11T01:37:30;15.80;99.90
3528;DHT22;1778;47.966;7.854;2022-07-11T01:38:31;15.80;99.90
3528;DHT22;1778;47.966;7.854;2022-07-11T01:39:33;15.80;99.90
3528;DHT22;1778;47.966;7.854;2022-07-11T01:40:34;15.80;99.90
3528;DHT22;1778;47.966;7.854;2022-07-11T01:41:36;15.70;99.90
3528;DHT22;1778;47.966;7.854;2022-07-11T01:42:37;15.60;99.90
3528;DHT22;1778;47.966;7.854;2022-07-11T01:43:39;15.60;99.90
3528;DHT22;1778;47.966;7.854;2022-07-11T01:44:41;15.60;99.90
3528;DHT22;1778;47.966;7.854;2022-07-11T01:45:42;15.50;99.90
3528;DHT22;1778;47.966;7.854;2022-07-11T01:46:44;15.60;99.90
3528;DHT22;1778;47.966;7.854;2022-07-11T01:47:46;15.60;99.90
3528;DHT22;1778;47.966;7.854;2022-07-11T01:48:48;15.50;99.90
3528;DHT22;1778;47.966;7.854;2022-07-11T01:49:50;15.50;99.90
3528;DHT22;1778;47.966;7.854;2022-07-11T01:50:51;15.50;99.90
3528;DHT22;1778;47.966;7.854;2022-07-11T01:51:53;15.40;99.90
3528;DHT22;1778;47.966;7.854;2022-07-11T01:52:54;15.40;99.90
3528;DHT22;1778;47.966;7.854;2022-07-11T01:53:56;15.40;99.90
3528;DHT22;1778;47.966;7.854;2022-07-11T01:54:58;15.40;99.90
3528;DHT22;1778;47.966;7.854;2022-07-11T01:55:59;15.40;99.90
3528;DHT22;1778;47.966;7.854;2022-07-11T01:57:21;15.30;99.90
3528;DHT22;1778;47.966;7.854;2022-07-11T01:58:22;15.30;99.90
3528;DHT22;1778;47.966;7.854;2022-07-11T01:59:24;15.20;99.90
3528;DHT22;1778;47.966;7.854;2022-07-11T02:00:26;15.30;99.90
3528;DHT22;1778;47.966;7.854;2022-07-11T02:01:27;15.20;99.90
3528;DHT22;1778;47.966;7.854;2022-07-11T02:02:29;15.20;99.90
3528;DHT22;1778;47.966;7.854;2022-07-11T02:03:31;15.20;99.90
3528;DHT22;1778;47.966;7.854;2022-07-11T02:04:32;15.20;99.90
3528;DHT22;1778;47.966;7.854;2022-07-11T02:05:34;15.20;99.90
3528;DHT22;1778;47.966;7.854;2022-07-11T02:06:36;15.20;99.90
3528;DHT22;1778;47.966;7.854;2022-07-11T02:07:38;15.10;99.90
3528;DHT22;1778;47.966;7.854;2022-07-11T02:08:58;15.10;99.90
3528;DHT22;1778;47.966;7.854;2022-07-11T02:09:59;15.10;99.90
3528;DHT22;1778;47.966;7.854;2022-07-11T02:11:01;15.00;99.90
3528;DHT22;1778;47.966;7.854;2022-07-11T02:12:03;15.00;99.90
3528;DHT22;1778;47.966;7.854;2022-07-11T02:13:04;14.90;99.90
3528;DHT22;1778;47.966;7.854;2022-07-11T02:14:06;14.90;99.90
3528;DHT22;1778;47.966;7.854;2022-07-11T02:15:08;14.80;99.90
3528;DHT22;1778;47.966;7.854;2022-07-11T02:16:10;14.80;99.90
3528;DHT22;1778;47.966;7.854;2022-07-11T02:17:11;14.80;99.90
3528;DHT22;1778;47.966;7.854;2022-07-11T02:18:14;14.90;99.90
3528;DHT22;1778;47.966;7.854;2022-07-11T02:19:16;14.90;99.90
3528;DHT22;1778;47.966;7.854;2022-07-11T02:20:18;14.90;99.90
3528;DHT22;1778;47.966;7.854;2022-07-11T02:21:20;14.90;99.90
3528;DHT22;1778;47.966;7.854;2022-07-11T02:22:21;14.90;99.90
3528;DHT22;1778;47.966;7.854;2022-07-11T02:23:23;14.90;99.90
3528;DHT22;1778;47.966;7.854;2022-07-11T02:24:24;14.80;99.90
3528;DHT22;1778;47.966;7.854;2022-07-11T02:25:26;14.80;99.90
3528;DHT22;1778;47.966;7.854;2022-07-11T02:26:28;14.70;99.90
3528;DHT22;1778;47.966;7.854;2022-07-11T02:27:30;14.60;99.90
3528;DHT22;1778;47.966;7.854;2022-07-11T02:28:32;14.60;99.90
3528;DHT22;1778;47.966;7.854;2022-07-11T02:29:35;14.60;99.90
3528;DHT22;1778;47.966;7.854;2022-07-11T02:30:38;14.60;99.90
3528;DHT22;1778;47.966;7.854;2022-07-11T02:31:40;14.60;99.90
3528;DHT22;1778;47.966;7.854;2022-07-11T02:32:43;14.60;99.90
3528;DHT22;1778;47.966;7.854;2022-07-11T02:33:44;14.60;99.90
3528;DHT22;1778;47.966;7.854;2022-07-11T02:34:47;14.70;99.90
3528;DHT22;1778;47.966;7.854;2022-07-11T02:35:49;14.60;99.90
3528;DHT22;1778;47.966;7.854;2022-07-11T02:36:51;14.60;99.90
3528;DHT22;1778;47.966;7.854;2022-07-11T02:37:53;14.60;99.90
3528;DHT22;1778;47.966;7.854;2022-07-11T02:38:54;14.60;99.90
3528;DHT22;1778;47.966;7.854;2022-07-11T02:39:56;14.50;99.90
3528;DHT22;1778;47.966;7.854;2022-07-11T02:40:58;14.50;99.90
3528;DHT22;1778;47.966;7.854;2022-07-11T02:42:00;14.40;99.90
3528;DHT22;1778;47.966;7.854;2022-07-11T02:43:01;14.40;99.90
3528;DHT22;1778;47.966;7.854;2022-07-11T02:44:03;14.40;99.90
3528;DHT22;1778;47.966;7.854;2022-07-11T02:45:05;14.40;99.90
3528;DHT22;1778;47.966;7.854;2022-07-11T02:46:09;14.40;99.90
3528;DHT22;1778;47.966;7.854;2022-07-11T02:47:10;14.40;99.90
3528;DHT22;1778;47.966;7.854;2022-07-11T02:48:12;14.30;99.90
3528;DHT22;1778;47.966;7.854;2022-07-11T02:49:14;14.20;99.90
3528;DHT22;1778;47.966;7.854;2022-07-11T02:50:15;14.30;99.90
3528;DHT22;1778;47.966;7.854;2022-07-11T02:51:17;14.30;99.90
3528;DHT22;1778;47.966;7.854;2022-07-11T02:52:19;14.20;99.90
3528;DHT22;1778;47.966;7.854;2022-07-11T02:53:21;14.20;99.90
3528;DHT22;1778;47.966;7.854;2022-07-11T02:54:23;14.20;99.90
3528;DHT22;1778;47.966;7.854;2022-07-11T02:55:24;14.20;99.90
3528;DHT22;1778;47.966;7.854;2022-07-11T02:56:26;14.10;99.90
3528;DHT22;1778;47.966;7.854;2022-07-11T02:57:28;14.10;99.90
3528;DHT22;1778;47.966;7.854;2022-07-11T02:58:30;14.10;99.90
3528;DHT22;1778;47.966;7.854;2022-07-11T02:59:31;14.10;99.90
3528;DHT22;1778;47.966;7.854;2022-07-11T03:00:32;14.00;99.90
3528;DHT22;1778;47.966;7.854;2022-07-11T03:01:34;14.00;99.90
3528;DHT22;1778;47.966;7.854;2022-07-11T03:02:36;14.00;99.90
3528;DHT22;1778;47.966;7.854;2022-07-11T03:03:37;14.00;99.90
3528;DHT22;1778;47.966;7.854;2022-07-11T03:04:40;14.00;99.90
3528;DHT22;1778;47.966;7.854;2022-07-11T03:05:43;14.00;99.90
3528;DHT22;1778;47.966;7.854;2022-07-11T03:06:45;14.00;99.90
3528;DHT22;1778;47.966;7.854;2022-07-11T03:07:47;14.00;99.90
3528;DHT22;1778;47.966;7.854;2022-07-11T03:08:48;14.00;99.90
3528;DHT22;1778;47.966;7.854;2022-07-11T03:09:50;13.90;99.90
3528;DHT22;1778;47.966;7.854;2022-07-11T03:10:51;13.90;99.90
3528;DHT22;1778;47.966;7.854;2022-07-11T03:11:53;13.80;99.90
3528;DHT22;1778;47.966;7.854;2022-07-11T03:12:54;13.80;99.90
3528;DHT22;1778;47.966;7.854;2022-07-11T03:13:56;13.80;99.90
3528;DHT22;1778;47.966;7.854;2022-07-11T03:14:57;13.80;99.90
3528;DHT22;1778;47.966;7.854;2022-07-11T03:15:59;13.80;99.90
3528;DHT22;1778;47.966;7.854;2022-07-11T03:17:01;13.80;99.90
3528;DHT22;1778;47.966;7.854;2022-07-11T03:18:02;13.70;99.90
3528;DHT22;1778;47.966;7.854;2022-07-11T03:19:04;13.70;99.90
3528;DHT22;1778;47.966;7.854;2022-07-11T03:20:07;13.70;99.90
3528;DHT22;1778;47.966;7.854;2022-07-11T03:21:08;13.80;99.90
3528;DHT22;1778;47.966;7.854;2022-07-11T03:22:10;13.80;99.90
3528;DHT22;1778;47.966;7.854;2022-07-11T03:23:12;13.70;99.90
3528;DHT22;1778;47.966;7.854;2022-07-11T03:24:14;13.70;99.90
3528;DHT22;1778;47.966;7.854;2022-07-11T03:25:15;13.70;99.90
3528;DHT22;1778;47.966;7.854;2022-07-11T03:26:18;13.60;99.90
3528;DHT22;1778;47.966;7.854;2022-07-11T03:27:19;13.60;99.90
3528;DHT22;1778;47.966;7.854;2022-07-11T03:28:22;13.70;99.90
3528;DHT22;1778;47.966;7.854;2022-07-11T03:29:23;13.80;99.90
3528;DHT22;1778;47.966;7.854;2022-07-11T03:30:25;13.80;99.90
3528;DHT22;1778;47.966;7.854;2022-07-11T03:31:27;13.70;99.90
3528;DHT22;1778;47.966;7.854;2022-07-11T03:32:28;13.70;99.90
3528;DHT22;1778;47.966;7.854;2022-07-11T03:33:30;13.70;99.90
3528;DHT22;1778;47.966;7.854;2022-07-11T03:34:32;13.70;99.90
3528;DHT22;1778;47.966;7.854;2022-07-11T03:35:34;13.70;99.90
3528;DHT22;1778;47.966;7.854;2022-07-11T03:36:44;13.70;99.90
3528;DHT22;1778;47.966;7.854;2022-07-11T03:37:47;13.70;99.90
3528;DHT22;1778;47.966;7.854;2022-07-11T03:38:49;13.80;99.90
3528;DHT22;1778;47.966;7.854;2022-07-11T03:39:50;13.70;99.90
3528;DHT22;1778;47.966;7.854;2022-07-11T03:40:52;13.60;99.90
3528;DHT22;1778;47.966;7.854;2022-07-11T03:41:54;13.70;99.90
3528;DHT22;1778;47.966;7.854;2022-07-11T03:42:56;13.80;99.90
3528;DHT22;1778;47.966;7.854;2022-07-11T03:43:58;13.80;99.90
3528;DHT22;1778;47.966;7.854;2022-07-11T03:44:59;13.80;99.90
3528;DHT22;1778;47.966;7.854;2022-07-11T03:46:01;13.70;99.90
3528;DHT22;1778;47.966;7.854;2022-07-11T03:47:03;13.60;99.90
3528;DHT22;1778;47.966;7.854;2022-07-11T03:48:04;13.60;99.90
3528;DHT22;1778;47.966;7.854;2022-07-11T03:49:06;13.70;99.90
3528;DHT22;1778;47.966;7.854;2022-07-11T03:50:08;13.60;99.90
3528;DHT22;1778;47.966;7.854;2022-07-11T03:51:10;13.50;99.90
3528;DHT22;1778;47.966;7.854;2022-07-11T03:52:11;13.50;99.90
3528;DHT22;1778;47.966;7.854;2022-07-11T03:53:14;13.50;99.90
3528;DHT22;1778;47.966;7.854;2022-07-11T03:54:15;13.50;99.90
3528;DHT22;1778;47.966;7.854;2022-07-11T03:55:17;13.60;99.90
3528;DHT22;1778;47.966;7.854;2022-07-11T03:56:18;13.50;99.90
3528;DHT22;1778;47.966;7.854;2022-07-11T03:57:24;13.50;99.90
3528;DHT22;1778;47.966;7.854;2022-07-11T03:58:25;13.50;99.90
3528;DHT22;1778;47.966;7.854;2022-07-11T03:59:27;13.50;99.90
3528;DHT22;1778;47.966;7.854;2022-07-11T04:00:28;13.40;99.90
3528;DHT22;1778;47.966;7.854;2022-07-11T04:01:30;13.50;99.90
3528;DHT22;1778;47.966;7.854;2022-07-11T04:02:32;13.50;99.90
3528;DHT22;1778;47.966;7.854;2022-07-11T04:03:34;13.60;99.90
3528;DHT22;1778;47.966;7.854;2022-07-11T04:04:35;13.70;99.90
3528;DHT22;1778;47.966;7.854;2022-07-11T04:05:37;13.60;99.90
3528;DHT22;1778;47.966;7.854;2022-07-11T04:06:39;13.60;99.90
3528;DHT22;1778;47.966;7.854;2022-07-11T04:07:43;13.60;99.90
3528;DHT22;1778;47.966;7.854;2022-07-11T04:08:45;13.50;99.90
3528;DHT22;1778;47.966;7.854;2022-07-11T04:09:47;13.50;99.90
3528;DHT22;1778;47.966;7.854;2022-07-11T04:10:49;13.40;99.90
3528;DHT22;1778;47.966;7.854;2022-07-11T04:11:53;13.50;99.90
3528;DHT22;1778;47.966;7.854;2022-07-11T04:12:54;13.40;99.90
3528;DHT22;1778;47.966;7.854;2022-07-11T04:13:56;13.40;99.90
3528;DHT22;1778;47.966;7.854;2022-07-11T04:14:58;13.40;99.90
3528;DHT22;1778;47.966;7.854;2022-07-11T04:16:00;13.40;99.90
3528;DHT22;1778;47.966;7.854;2022-07-11T04:17:02;13.40;99.90
3528;DHT22;1778;47.966;7.854;2022-07-11T04:18:04;13.50;99.90
3528;DHT22;1778;47.966;7.854;2022-07-11T04:19:06;13.60;99.90
3528;DHT22;1778;47.966;7.854;2022-07-11T04:20:08;13.60;99.90
3528;DHT22;1778;47.966;7.854;2022-07-11T04:21:09;13.50;99.90
3528;DHT22;1778;47.966;7.854;2022-07-11T04:22:11;13.50;99.90
3528;DHT22;1778;47.966;7.854;2022-07-11T04:23:13;13.50;99.90
3528;DHT22;1778;47.966;7.854;2022-07-11T04:24:15;13.40;99.90
3528;DHT22;1778;47.966;7.854;2022-07-11T04:25:17;13.40;99.90
3528;DHT22;1778;47.966;7.854;2022-07-11T04:26:18;13.50;99.90
3528;DHT22;1778;47.966;7.854;2022-07-11T04:27:20;13.50;99.90
3528;DHT22;1778;47.966;7.854;2022-07-11T04:28:23;13.50;99.90
3528;DHT22;1778;47.966;7.854;2022-07-11T04:29:25;13.50;99.90
3528;DHT22;1778;47.966;7.854;2022-07-11T04:30:27;13.50;99.90
3528;DHT22;1778;47.966;7.854;2022-07-11T04:31:29;13.40;99.90
3528;DHT22;1778;47.966;7.854;2022-07-11T04:32:30;13.40;99.90
3528;DHT22;1778;47.966;7.854;2022-07-11T04:33:32;13.40;99.90
3528;DHT22;1778;47.966;7.854;2022-07-11T04:34:33;13.40;99.90
3528;DHT22;1778;47.966;7.854;2022-07-11T04:35:35;13.40;99.90
3528;DHT22;1778;47.966;7.854;2022-07-11T04:36:36;13.40;99.90
3528;DHT22;1778;47.966;7.854;2022-07-11T04:37:38;13.40;99.90
3528;DHT22;1778;47.966;7.854;2022-07-11T04:38:39;13.50;99.90
3528;DHT22;1778;47.966;7.854;2022-07-11T04:39:45;13.50;99.90
3528;DHT22;1778;47.966;7.854;2022-07-11T04:40:48;13.50;99.90
3528;DHT22;1778;47.966;7.854;2022-07-11T04:41:51;13.50;99.90
3528;DHT22;1778;47.966;7.854;2022-07-11T04:42:52;13.60;99.90
3528;DHT22;1778;47.966;7.854;2022-07-11T04:43:54;13.60;99.90
3528;DHT22;1778;47.966;7.854;2022-07-11T04:44:55;13.50;99.90
3528;DHT22;1778;47.966;7.854;2022-07-11T04:45:57;13.60;99.90
3528;DHT22;1778;47.966;7.854;2022-07-11T04:47:00;13.60;99.90
3528;DHT22;1778;47.966;7.854;2022-07-11T04:48:02;13.60;99.90
3528;DHT22;1778;47.966;7.854;2022-07-11T04:49:04;13.60;99.90
3528;DHT22;1778;47.966;7.854;2022-07-11T04:50:06;13.60;99.90
3528;DHT22;1778;47.966;7.854;2022-07-11T04:51:08;13.60;99.90
3528;DHT22;1778;47.966;7.854;2022-07-11T04:52:09;13.60;99.90
3528;DHT22;1778;47.966;7.854;2022-07-11T04:53:11;13.60;99.90
3528;DHT22;1778;47.966;7.854;2022-07-11T04:54:13;13.60;99.90
3528;DHT22;1778;47.966;7.854;2022-07-11T04:55:15;13.60;99.90
3528;DHT22;1778;47.966;7.854;2022-07-11T04:56:18;13.60;99.90
3528;DHT22;1778;47.966;7.854;2022-07-11T04:57:20;13.60;99.90
3528;DHT22;1778;47.966;7.854;2022-07-11T04:58:22;13.60;99.90
3528;DHT22;1778;47.966;7.854;2022-07-11T04:59:23;13.70;99.90
3528;DHT22;1778;47.966;7.854;2022-07-11T05:00:25;13.60;99.90
3528;DHT22;1778;47.966;7.854;2022-07-11T05:01:27;13.60;99.90
3528;DHT22;1778;47.966;7.854;2022-07-11T05:02:30;13.70;99.90
3528;DHT22;1778;47.966;7.854;2022-07-11T05:03:32;13.70;99.90
3528;DHT22;1778;47.966;7.854;2022-07-11T05:04:33;13.70;99.90
3528;DHT22;1778;47.966;7.854;2022-07-11T05:05:35;13.70;99.90
3528;DHT22;1778;47.966;7.854;2022-07-11T05:06:37;13.70;99.90
3528;DHT22;1778;47.966;7.854;2022-07-11T05:07:39;13.70;99.90
3528;DHT22;1778;47.966;7.854;2022-07-11T05:08:41;13.70;99.90
3528;DHT22;1778;47.966;7.854;2022-07-11T05:09:43;13.80;99.90
3528;DHT22;1778;47.966;7.854;2022-07-11T05:10:44;13.80;99.90
3528;DHT22;1778;47.966;7.854;2022-07-11T05:11:46;13.90;99.90
3528;DHT22;1778;47.966;7.854;2022-07-11T05:12:47;13.90;99.90
3528;DHT22;1778;47.966;7.854;2022-07-11T05:13:49;13.80;99.90
3528;DHT22;1778;47.966;7.854;2022-07-11T05:14:51;13.80;99.90
3528;DHT22;1778;47.966;7.854;2022-07-11T05:15:52;13.80;99.90
3528;DHT22;1778;47.966;7.854;2022-07-11T05:16:55;13.80;99.90
3528;DHT22;1778;47.966;7.854;2022-07-11T05:17:57;13.90;99.90
3528;DHT22;1778;47.966;7.854;2022-07-11T05:18:59;14.00;99.90
3528;DHT22;1778;47.966;7.854;2022-07-11T05:20:00;14.10;99.90
3528;DHT22;1778;47.966;7.854;2022-07-11T05:21:02;14.10;99.90
3528;DHT22;1778;47.966;7.854;2022-07-11T05:22:04;14.20;99.90
3528;DHT22;1778;47.966;7.854;2022-07-11T05:23:05;14.20;99.90
3528;DHT22;1778;47.966;7.854;2022-07-11T05:24:07;14.20;99.90
3528;DHT22;1778;47.966;7.854;2022-07-11T05:25:09;14.30;99.90
3528;DHT22;1778;47.966;7.854;2022-07-11T05:26:11;14.30;99.90
3528;DHT22;1778;47.966;7.854;2022-07-11T05:27:18;14.30;99.90
3528;DHT22;1778;47.966;7.854;2022-07-11T05:28:20;14.40;99.90
3528;DHT22;1778;47.966;7.854;2022-07-11T05:29:21;14.50;99.90
3528;DHT22;1778;47.966;7.854;2022-07-11T05:30:24;14.50;99.90
3528;DHT22;1778;47.966;7.854;2022-07-11T05:31:26;14.60;99.90
3528;DHT22;1778;47.966;7.854;2022-07-11T05:32:28;14.60;99.90
3528;DHT22;1778;47.966;7.854;2022-07-11T05:33:36;14.70;99.90
3528;DHT22;1778;47.966;7.854;2022-07-11T05:34:38;14.80;99.90
3528;DHT22;1778;47.966;7.854;2022-07-11T05:35:41;14.80;99.90
3528;DHT22;1778;47.966;7.854;2022-07-11T05:36:43;14.90;99.90
3528;DHT22;1778;47.966;7.854;2022-07-11T05:37:44;15.00;99.90
3528;DHT22;1778;47.966;7.854;2022-07-11T05:38:46;15.00;99.90
3528;DHT22;1778;47.966;7.854;2022-07-11T05:39:47;15.00;99.90
3528;DHT22;1778;47.966;7.854;2022-07-11T05:40:49;15.10;99.90
3528;DHT22;1778;47.966;7.854;2022-07-11T05:41:51;15.10;99.90
3528;DHT22;1778;47.966;7.854;2022-07-11T05:42:53;15.20;99.90
3528;DHT22;1778;47.966;7.854;2022-07-11T05:43:54;15.20;99.90
3528;DHT22;1778;47.966;7.854;2022-07-11T05:44:56;15.30;99.90
3528;DHT22;1778;47.966;7.854;2022-07-11T05:45:57;15.30;99.90
3528;DHT22;1778;47.966;7.854;2022-07-11T05:47:02;15.40;99.90
3528;DHT22;1778;47.966;7.854;2022-07-11T05:48:05;15.40;99.90
3528;DHT22;1778;47.966;7.854;2022-07-11T05:49:07;15.40;99.90
3528;DHT22;1778;47.966;7.854;2022-07-11T05:50:09;15.50;99.90
3528;DHT22;1778;47.966;7.854;2022-07-11T05:51:10;15.60;99.90
3528;DHT22;1778;47.966;7.854;2022-07-11T05:52:12;15.60;99.90
3528;DHT22;1778;47.966;7.854;2022-07-11T05:53:14;15.70;99.90
3528;DHT22;1778;47.966;7.854;2022-07-11T05:54:16;15.70;99.90
3528;DHT22;1778;47.966;7.854;2022-07-11T05:55:18;15.80;99.90
3528;DHT22;1778;47.966;7.854;2022-07-11T05:56:19;15.90;99.90
3528;DHT22;1778;47.966;7.854;2022-07-11T05:57:21;15.90;99.90
3528;DHT22;1778;47.966;7.854;2022-07-11T05:58:22;15.90;99.90
3528;DHT22;1778;47.966;7.854;2022-07-11T05:59:24;16.00;99.90
3528;DHT22;1778;47.966;7.854;2022-07-11T06:00:25;16.00;99.90
3528;DHT22;1778;47.966;7.854;2022-07-11T06:01:29;16.10;99.90
3528;DHT22;1778;47.966;7.854;2022-07-11T06:02:37;16.10;99.90
3528;DHT22;1778;47.966;7.854;2022-07-11T06:03:39;16.20;99.90
3528;DHT22;1778;47.966;7.854;2022-07-11T06:04:41;16.20;99.90
3528;DHT22;1778;47.966;7.854;2022-07-11T06:05:44;16.40;99.90
3528;DHT22;1778;47.966;7.854;2022-07-11T06:06:45;16.40;99.90
3528;DHT22;1778;47.966;7.854;2022-07-11T06:07:47;16.50;99.90
3528;DHT22;1778;47.966;7.854;2022-07-11T06:09:27;16.50;99.90
3528;DHT22;1778;47.966;7.854;2022-07-11T06:10:30;16.60;99.90
3528;DHT22;1778;47.966;7.854;2022-07-11T06:11:33;16.70;99.90
3528;DHT22;1778;47.966;7.854;2022-07-11T06:12:34;16.80;99.90
3528;DHT22;1778;47.966;7.854;2022-07-11T06:13:37;16.80;99.90
3528;DHT22;1778;47.966;7.854;2022-07-11T06:14:38;16.80;99.90
3528;DHT22;1778;47.966;7.854;2022-07-11T06:15:40;16.80;99.90
3528;DHT22;1778;47.966;7.854;2022-07-11T06:16:42;16.90;99.90
3528;DHT22;1778;47.966;7.854;2022-07-11T06:17:44;16.90;99.90
3528;DHT22;1778;47.966;7.854;2022-07-11T06:18:46;17.00;99.90
3528;DHT22;1778;47.966;7.854;2022-07-11T06:19:48;17.00;99.90
3528;DHT22;1778;47.966;7.854;2022-07-11T06:20:50;17.20;99.90
3528;DHT22;1778;47.966;7.854;2022-07-11T06:21:52;17.20;99.90
3528;DHT22;1778;47.966;7.854;2022-07-11T06:22:54;17.30;99.90
3528;DHT22;1778;47.966;7.854;2022-07-11T06:23:56;17.40;99.90
3528;DHT22;1778;47.966;7.854;2022-07-11T06:24:58;17.50;99.90
3528;DHT22;1778;47.966;7.854;2022-07-11T06:26:00;17.50;99.90
3528;DHT22;1778;47.966;7.854;2022-07-11T06:27:02;17.60;99.90
3528;DHT22;1778;47.966;7.854;2022-07-11T06:28:04;17.70;99.90
3528;DHT22;1778;47.966;7.854;2022-07-11T06:29:06;17.70;99.90
3528;DHT22;1778;47.966;7.854;2022-07-11T06:30:08;17.80;99.90
3528;DHT22;1778;47.966;7.854;2022-07-11T06:31:10;17.80;99.90
3528;DHT22;1778;47.966;7.854;2022-07-11T06:32:12;17.90;99.90
3528;DHT22;1778;47.966;7.854;2022-07-11T06:33:18;17.90;99.90
3528;DHT22;1778;47.966;7.854;2022-07-11T06:34:20;18.00;99.90
3528;DHT22;1778;47.966;7.854;2022-07-11T06:35:22;18.10;99.90
3528;DHT22;1778;47.966;7.854;2022-07-11T06:36:24;18.20;99.90
3528;DHT22;1778;47.966;7.854;2022-07-11T06:37:26;18.10;99.90
3528;DHT22;1778;47.966;7.854;2022-07-11T06:38:27;18.10;99.90
3528;DHT22;1778;47.966;7.854;2022-07-11T06:39:30;18.10;99.90
3528;DHT22;1778;47.966;7.854;2022-07-11T06:40:31;18.20;99.90
3528;DHT22;1778;47.966;7.854;2022-07-11T06:41:33;18.20;99.90
3528;DHT22;1778;47.966;7.854;2022-07-11T06:42:34;18.30;99.90
3528;DHT22;1778;47.966;7.854;2022-07-11T06:43:36;18.30;99.90
3528;DHT22;1778;47.966;7.854;2022-07-11T06:44:37;18.30;99.90
3528;DHT22;1778;47.966;7.854;2022-07-11T06:45:39;18.20;99.90
3528;DHT22;1778;47.966;7.854;2022-07-11T06:46:40;18.20;99.90